San Cristobal, Argentina
Current Conditions -  °F | °C
As of 2:00 PM on Wednesday 26 Nov 2014 (Local Time) from SAAR Reporting Station
Clear Clear  
Wind Chill: 29°   Ceiling: Unl
Heat Index: 29°   Visibility: 6mi
Dew Point:   Wind: 6mph
Humidity: 27%   Direction: 90°E
Pressure: 29.88"   Gusts: NA
Location:  30.32°S, 61.23°W
Report Text: SAAR 261700Z 09005KT CAVOK 29/08 Q1012
Loading
Personal Weather Stations






























Interactive Weather Map New forecast layout! Learn more

10-Day Weather Forecast

Advertisements
Track Severe Weather on mobile